Sds Green — ICOK — position and weather

sailwx.info

Track history (hours):
 
Tides and Currents Weather Stations Pressure Air Temp Water Temp Dewpoint Dewpoint Depression Visibility Wind Speed Wind Dir Waves Ship Positions

Sds Green

Last reported at 2016-Feb-10 17:32 UTC. Time now 2016-Feb-10 20:11 UTC.
Position N 42°41' E 010°30'.

Length 108 m; draft 7.4 m.

Type: Cargo ship. MMSI: 247292200.

Date/timePositionNaut miles runAvg speedWind from/ knotsBaromVisibWave heightAir tempDewpointWater temp
2016-Feb-10 17:32N 42°41' E 010°30'3010.0
2016-Feb-10 14:31N 42°51' E 009°51'2610.8
2016-Feb-10 12:05N 43°04' E 009°19'611.0
2016-Feb-10 11:33N 43°04' E 009°11'16610.1
2016-Feb-09 19:04N 43°04' E 005°23'610.7
2016-Feb-09 18:33N 43°06' E 005°16'1010.5
2016-Feb-09 17:33N 43°11' E 005°03'10 9.4
2016-Feb-09 16:33N 43°20' E 004°59'7 7.2
2016-Feb-09 15:33N 43°26' E 004°53'0 0.1
2016-Feb-09 14:26N 43°26' E 004°53'0 0.0
2016-Feb-09 13:20N 43°26' E 004°53'0 0.0
2016-Feb-09 12:32N 43°26' E 004°53'0 0.0
2016-Feb-09 11:32N 43°26' E 004°53'0 0.0
2016-Feb-09 10:29N 43°26' E 004°53'0 0.0
2016-Feb-09 09:32N 43°26' E 004°53'0 0.0
2016-Feb-09 08:29N 43°26' E 004°53'0 0.0
2016-Feb-09 07:32N 43°26' E 004°53'0 0.0
2016-Feb-09 06:32N 43°26' E 004°53'0 0.0
2016-Feb-09 05:32N 43°26' E 004°53'0 0.0
2016-Feb-09 04:29N 43°26' E 004°53'0 0.0
2016-Feb-09 03:23N 43°26' E 004°53'0 0.0
2016-Feb-09 02:29N 43°26' E 004°53'0 0.0
2016-Feb-09 01:29N 43°26' E 004°53'0 0.0
2016-Feb-09 00:32N 43°26' E 004°53'0 0.0
2016-Feb-08 23:32N 43°26' E 004°53'0 0.0
2016-Feb-08 22:29N 43°26' E 004°53'0 0.0
2016-Feb-08 21:32N 43°26' E 004°53'0 0.0
2016-Feb-08 20:29N 43°26' E 004°53'0 0.0
2016-Feb-08 19:32N 43°26' E 004°53'0 0.0
2016-Feb-08 18:32N 43°26' E 004°53'0 0.0
2016-Feb-08 17:32N 43°26' E 004°53'0 0.0
2016-Feb-08 16:32N 43°26' E 004°53'0 0.0
2016-Feb-08 15:32N 43°26' E 004°53'0 0.0
2016-Feb-08 14:32N 43°26' E 004°53'0 0.0
2016-Feb-08 13:32N 43°26' E 004°53'0 0.0
2016-Feb-08 12:32N 43°26' E 004°53'0 0.0
2016-Feb-08 11:29N 43°26' E 004°53'2 2.4
2016-Feb-08 10:33N 43°24' E 004°55'1110.8
2016-Feb-08 09:33N 43°14' E 005°01'1010.0
2016-Feb-08 08:33N 43°09' E 004°50'1212.0
2016-Feb-08 07:33N 43°07' E 004°33'1212.4
2016-Feb-08 06:33N 43°05' E 004°17'12810.5
2016-Feb-07 18:23N 41°21' E 002°36'1011.6
2016-Feb-07 17:33N 41°13' E 002°29'1111.3
2016-Feb-07 16:33N 41°02' E 002°28'1211.7
2016-Feb-07 15:33N 40°50' E 002°29'1111.4
2016-Feb-07 14:33N 40°39' E 002°30'1010.3
2016-Feb-07 13:33N 40°29' E 002°28'10 9.5
2016-Feb-07 12:33N 40°20' E 002°23'9 9.4
2016-Feb-07 11:33N 40°12' E 002°17'1010.3
2016-Feb-07 10:33N 40°03' E 002°11'1111.2
2016-Feb-07 09:33N 39°53' E 002°03'1312.2
2016-Feb-07 08:29N 39°41' E 001°56'1010.8
2016-Feb-07 07:33N 39°32' E 001°52'1110.8
2016-Feb-07 06:33N 39°24' E 002°01'1211.9
2016-Feb-07 05:33N 39°15' E 002°12'1211.8
2016-Feb-07 04:32N 39°06' E 002°22'1212.0
2016-Feb-07 03:33N 38°58' E 002°33'1211.9
2016-Feb-07 02:33N 38°49' E 002°43'1211.8
2016-Feb-07 01:33N 38°41' E 002°54'1211.9
2016-Feb-07 00:33N 38°32' E 003°04'  
Track history (hours):
 
Tides and Currents Weather Stations Pressure Air Temp Water Temp Dewpoint Dewpoint Depression Visibility Wind Speed Wind Dir Waves Ship Positions

Sds Green

Last reported at 2016-Feb-10 17:32 UTC. Time now 2016-Feb-10 20:11 UTC.
Position N 42°41' E 010°30'.

Length 108 m; draft 7.4 m.

Type: Cargo ship. MMSI: 247292200.

Date/timePositionNaut miles runAvg speedWind from/ knotsBaromVisibWave heightAir tempDewpointWater temp
2016-Feb-10 17:32N 42°41' E 010°30'3010.0
2016-Feb-10 14:31N 42°51' E 009°51'2610.8
2016-Feb-10 12:05N 43°04' E 009°19'611.0
2016-Feb-10 11:33N 43°04' E 009°11'16610.1
2016-Feb-09 19:04N 43°04' E 005°23'610.7
2016-Feb-09 18:33N 43°06' E 005°16'1010.5
2016-Feb-09 17:33N 43°11' E 005°03'10 9.4
2016-Feb-09 16:33N 43°20' E 004°59'7 7.2
2016-Feb-09 15:33N 43°26' E 004°53'0 0.1
2016-Feb-09 14:26N 43°26' E 004°53'0 0.0
2016-Feb-09 13:20N 43°26' E 004°53'0 0.0
2016-Feb-09 12:32N 43°26' E 004°53'0 0.0
2016-Feb-09 11:32N 43°26' E 004°53'0 0.0
2016-Feb-09 10:29N 43°26' E 004°53'0 0.0
2016-Feb-09 09:32N 43°26' E 004°53'0 0.0
2016-Feb-09 08:29N 43°26' E 004°53'0 0.0
2016-Feb-09 07:32N 43°26' E 004°53'0 0.0
2016-Feb-09 06:32N 43°26' E 004°53'0 0.0
2016-Feb-09 05:32N 43°26' E 004°53'0 0.0
2016-Feb-09 04:29N 43°26' E 004°53'0 0.0
2016-Feb-09 03:23N 43°26' E 004°53'0 0.0
2016-Feb-09 02:29N 43°26' E 004°53'0 0.0
2016-Feb-09 01:29N 43°26' E 004°53'0 0.0
2016-Feb-09 00:32N 43°26' E 004°53'0 0.0
2016-Feb-08 23:32N 43°26' E 004°53'0 0.0
2016-Feb-08 22:29N 43°26' E 004°53'0 0.0
2016-Feb-08 21:32N 43°26' E 004°53'0 0.0
2016-Feb-08 20:29N 43°26' E 004°53'0 0.0
2016-Feb-08 19:32N 43°26' E 004°53'0 0.0
2016-Feb-08 18:32N 43°26' E 004°53'0 0.0
2016-Feb-08 17:32N 43°26' E 004°53'0 0.0
2016-Feb-08 16:32N 43°26' E 004°53'0 0.0
2016-Feb-08 15:32N 43°26' E 004°53'0 0.0
2016-Feb-08 14:32N 43°26' E 004°53'0 0.0
2016-Feb-08 13:32N 43°26' E 004°53'0 0.0
2016-Feb-08 12:32N 43°26' E 004°53'0 0.0
2016-Feb-08 11:29N 43°26' E 004°53'2 2.4
2016-Feb-08 10:33N 43°24' E 004°55'1110.8
2016-Feb-08 09:33N 43°14' E 005°01'1010.0
2016-Feb-08 08:33N 43°09' E 004°50'1212.0
2016-Feb-08 07:33N 43°07' E 004°33'1212.4
2016-Feb-08 06:33N 43°05' E 004°17'12810.5
2016-Feb-07 18:23N 41°21' E 002°36'1011.6
2016-Feb-07 17:33N 41°13' E 002°29'1111.3
2016-Feb-07 16:33N 41°02' E 002°28'1211.7
2016-Feb-07 15:33N 40°50' E 002°29'1111.4
2016-Feb-07 14:33N 40°39' E 002°30'1010.3
2016-Feb-07 13:33N 40°29' E 002°28'10 9.5
2016-Feb-07 12:33N 40°20' E 002°23'9 9.4
2016-Feb-07 11:33N 40°12' E 002°17'1010.3
2016-Feb-07 10:33N 40°03' E 002°11'1111.2
2016-Feb-07 09:33N 39°53' E 002°03'1312.2
2016-Feb-07 08:29N 39°41' E 001°56'1010.8
2016-Feb-07 07:33N 39°32' E 001°52'1110.8
2016-Feb-07 06:33N 39°24' E 002°01'1211.9
2016-Feb-07 05:33N 39°15' E 002°12'1211.8
2016-Feb-07 04:32N 39°06' E 002°22'1212.0
2016-Feb-07 03:33N 38°58' E 002°33'1211.9
2016-Feb-07 02:33N 38°49' E 002°43'1211.8
2016-Feb-07 01:33N 38°41' E 002°54'1211.9
2016-Feb-07 00:33N 38°32' E 003°04'  

Dump ship's entire track history